createdAt,value
2022-10-17T00:00:20.103Z,12.46
2022-10-17T00:01:20.116Z,12.48
2022-10-17T00:02:20.051Z,12.48
2022-10-17T00:03:20.029Z,12.48
2022-10-17T00:04:20.017Z,12.48
2022-10-17T00:05:20.162Z,12.51
2022-10-17T00:06:19.996Z,12.52
2022-10-17T00:07:19.993Z,12.52
2022-10-17T00:08:19.976Z,12.51
2022-10-17T00:09:19.951Z,12.52
2022-10-17T00:10:19.930Z,12.49
2022-10-17T00:11:19.964Z,12.49
2022-10-17T00:12:19.924Z,12.49
2022-10-17T00:13:19.912Z,12.46
2022-10-17T00:14:19.885Z,12.46
2022-10-17T00:15:19.872Z,12.45
2022-10-17T00:16:19.844Z,12.44
2022-10-17T00:17:19.966Z,12.41
2022-10-17T00:18:19.823Z,12.41
2022-10-17T00:19:19.827Z,12.38
2022-10-17T00:20:19.809Z,12.37
2022-10-17T00:21:19.784Z,12.34
2022-10-17T00:22:19.789Z,12.34
2022-10-17T00:23:19.873Z,12.37
2022-10-17T00:24:19.743Z,12.33
2022-10-17T00:25:19.749Z,12.33
2022-10-17T00:26:19.727Z,12.30
2022-10-17T00:27:19.708Z,12.30
2022-10-17T00:28:19.687Z,12.24
2022-10-17T00:29:19.812Z,12.21
2022-10-17T00:30:19.658Z,12.19
2022-10-17T00:31:19.663Z,12.16
2022-10-17T00:32:19.684Z,12.11
2022-10-17T00:33:19.619Z,12.09
2022-10-17T00:34:19.622Z,12.05
2022-10-17T00:35:19.629Z,11.97
2022-10-17T00:36:19.585Z,11.93
2022-10-17T00:37:19.583Z,11.87
2022-10-17T00:38:19.548Z,11.83
2022-10-17T00:39:19.552Z,11.80
2022-10-17T00:40:19.546Z,11.77
2022-10-17T00:41:19.644Z,11.75
2022-10-17T00:42:19.490Z,11.74
2022-10-17T00:43:19.502Z,11.68
2022-10-17T00:44:19.485Z,11.68
2022-10-17T00:45:19.459Z,11.65
2022-10-17T00:46:19.458Z,11.64
2022-10-17T00:47:19.453Z,11.62
2022-10-17T00:48:22.583Z,11.61
2022-10-17T00:49:19.416Z,11.59
2022-10-17T00:50:19.384Z,11.57
2022-10-17T00:51:19.397Z,11.54
2022-10-17T00:52:19.367Z,11.53
2022-10-17T00:53:19.473Z,11.53
2022-10-17T00:54:19.347Z,11.64
2022-10-17T00:55:19.323Z,11.68
2022-10-17T00:56:19.315Z,11.70
2022-10-17T00:57:19.310Z,11.67
2022-10-17T00:58:19.284Z,11.67
2022-10-17T00:59:19.398Z,11.65
2022-10-17T01:00:19.268Z,11.64
2022-10-17T01:01:19.286Z,11.59
2022-10-17T01:02:19.239Z,11.59
2022-10-17T01:03:19.215Z,11.68
2022-10-17T01:04:19.196Z,11.71
2022-10-17T01:05:19.331Z,11.67
2022-10-17T01:06:19.167Z,11.64
2022-10-17T01:07:19.172Z,11.61
2022-10-17T01:08:19.165Z,11.57
2022-10-17T01:09:19.128Z,11.56
2022-10-17T01:10:19.165Z,11.54
2022-10-17T01:11:19.138Z,11.56
2022-10-17T01:12:19.088Z,11.57
2022-10-17T01:13:19.093Z,11.57
2022-10-17T01:14:19.076Z,11.59
2022-10-17T01:15:19.051Z,11.57
2022-10-17T01:16:19.030Z,11.56
2022-10-17T01:17:19.064Z,11.50
2022-10-17T01:18:19.000Z,11.47
2022-10-17T01:19:19.081Z,11.39
2022-10-17T01:20:18.995Z,11.35
2022-10-17T01:21:18.973Z,11.31
2022-10-17T01:22:18.966Z,11.28
2022-10-17T01:23:19.052Z,11.28
2022-10-17T01:24:18.922Z,11.27
2022-10-17T01:25:18.928Z,11.28
2022-10-17T01:26:18.894Z,11.34
2022-10-17T01:27:18.908Z,11.39
2022-10-17T01:28:18.889Z,11.39
2022-10-17T01:29:18.969Z,11.32
2022-10-17T01:30:18.849Z,11.25
2022-10-17T01:31:18.849Z,11.20
2022-10-17T01:32:18.836Z,11.14
2022-10-17T01:33:18.805Z,11.11
2022-10-17T01:34:18.799Z,11.10
2022-10-17T01:35:18.895Z,11.07
2022-10-17T01:36:18.757Z,11.07
2022-10-17T01:37:18.770Z,11.02
2022-10-17T01:38:18.746Z,10.99
2022-10-17T01:39:18.741Z,10.96
2022-10-17T01:40:18.720Z,10.99
2022-10-17T01:41:18.808Z,10.99
2022-10-17T01:42:18.711Z,11.01
2022-10-17T01:43:18.688Z,11.02
2022-10-17T01:44:18.651Z,11.06
2022-10-17T01:45:18.661Z,11.09
2022-10-17T01:46:18.668Z,11.11
2022-10-17T01:47:18.911Z,11.10
2022-10-17T01:48:18.597Z,11.10
2022-10-17T01:49:18.605Z,11.09
2022-10-17T01:50:18.573Z,11.07
2022-10-17T01:51:18.577Z,11.07
2022-10-17T01:52:18.556Z,11.06
2022-10-17T01:53:18.562Z,11.06
2022-10-17T01:54:18.533Z,11.03
2022-10-17T01:55:18.511Z,11.03
2022-10-17T01:56:18.485Z,11.03
2022-10-17T01:57:18.496Z,11.03
2022-10-17T01:58:18.465Z,11.03
2022-10-17T02:00:51.264Z,11.02
2022-10-17T02:01:30.293Z,11.01
2022-10-17T02:02:30.221Z,11.01
2022-10-17T02:03:30.216Z,11.02
2022-10-17T02:04:30.311Z,11.02
2022-10-17T02:05:30.188Z,11.03
2022-10-17T02:06:30.185Z,11.03
2022-10-17T02:07:30.438Z,11.01
2022-10-17T02:08:30.146Z,11.01
2022-10-17T02:09:30.113Z,10.99
2022-10-17T02:10:30.132Z,11.01
2022-10-17T02:11:30.099Z,11.01
2022-10-17T02:12:30.083Z,11.01
2022-10-17T02:13:30.077Z,11.02
2022-10-17T02:14:30.071Z,11.02
2022-10-17T02:15:30.034Z,11.03
2022-10-17T02:16:30.178Z,11.06
2022-10-17T02:17:30.284Z,11.06
2022-10-17T02:18:30.003Z,11.06
2022-10-17T02:19:29.997Z,11.06
2022-10-17T02:20:29.966Z,11.06
2022-10-17T02:21:29.969Z,11.06
2022-10-17T02:22:30.069Z,11.06
2022-10-17T02:23:29.931Z,11.06
2022-10-17T02:24:29.939Z,11.06
2022-10-17T02:25:29.897Z,11.06
2022-10-17T02:26:29.897Z,11.06
2022-10-17T02:27:30.497Z,11.06
2022-10-17T02:28:30.013Z,11.03
2022-10-17T02:29:29.860Z,11.03
2022-10-17T02:30:29.851Z,11.03
2022-10-17T02:31:29.819Z,11.03
2022-10-17T02:32:29.811Z,11.06
2022-10-17T02:33:29.804Z,11.09
2022-10-17T02:34:29.912Z,11.09
2022-10-17T02:35:29.770Z,11.11
2022-10-17T02:36:29.770Z,11.11
2022-10-17T02:37:30.128Z,11.14
2022-10-17T02:38:29.731Z,11.16
2022-10-17T02:39:29.724Z,11.19
2022-10-17T02:40:29.815Z,11.19
2022-10-17T02:42:29.889Z,11.19
2022-10-17T02:43:29.665Z,11.20
2022-10-17T02:44:29.667Z,11.21
2022-10-17T02:45:29.633Z,11.24
2022-10-17T02:46:29.646Z,11.21
2022-10-17T02:47:29.618Z,11.19
2022-10-17T02:48:29.607Z,11.17
2022-10-17T02:49:29.574Z,11.16
2022-10-17T02:51:29.560Z,11.11
2022-10-17T02:52:29.801Z,11.10
2022-10-17T02:53:29.539Z,11.09
2022-10-17T02:54:29.570Z,11.11
2022-10-17T02:55:29.496Z,11.11
2022-10-17T02:56:29.500Z,11.11
2022-10-17T02:57:29.468Z,11.10
2022-10-17T02:58:29.566Z,11.11
2022-10-17T02:59:29.502Z,11.10
2022-10-17T03:00:29.427Z,11.10
2022-10-17T03:01:29.516Z,11.07
2022-10-17T03:02:29.620Z,11.06
2022-10-17T03:03:29.386Z,11.02
2022-10-17T03:04:29.420Z,11.01
2022-10-17T03:05:29.370Z,10.98
2022-10-17T03:06:29.364Z,10.98
2022-10-17T03:07:29.329Z,10.98
2022-10-17T03:08:29.391Z,10.98
2022-10-17T03:09:29.303Z,10.98
2022-10-17T03:10:29.404Z,10.98
2022-10-17T03:11:29.295Z,10.98
2022-10-17T03:12:29.550Z,10.99
2022-10-17T03:13:29.263Z,11.02
2022-10-17T03:14:29.264Z,11.13
2022-10-17T03:15:29.212Z,11.17
2022-10-17T03:16:29.336Z,11.21
2022-10-17T03:17:29.193Z,11.31
2022-10-17T03:18:29.184Z,11.47
2022-10-17T03:19:29.177Z,11.56
2022-10-17T03:20:29.153Z,11.56
2022-10-17T03:21:29.148Z,11.50
2022-10-17T03:22:29.548Z,11.44
2022-10-17T03:23:29.105Z,11.38
2022-10-17T03:24:29.119Z,11.31
2022-10-17T03:25:29.084Z,11.28
2022-10-17T03:26:29.075Z,11.21
2022-10-17T03:27:29.316Z,11.21
2022-10-17T03:28:29.208Z,11.19
2022-10-17T03:29:29.042Z,11.19
2022-10-17T03:30:29.031Z,11.17
2022-10-17T03:31:29.007Z,11.14
2022-10-17T03:32:29.008Z,11.11
2022-10-17T03:33:28.975Z,11.09
2022-10-17T03:34:29.077Z,11.03
2022-10-17T03:35:28.971Z,11.03
2022-10-17T03:36:28.952Z,11.06
2022-10-17T03:37:29.144Z,11.02
2022-10-17T03:38:28.909Z,11.06
2022-10-17T03:39:28.902Z,11.06
2022-10-17T03:40:28.991Z,11.06
2022-10-17T03:41:28.891Z,11.03
2022-10-17T03:42:28.875Z,11.01
2022-10-17T03:43:28.841Z,11.02
2022-10-17T03:44:28.844Z,11.02
2022-10-17T03:45:28.811Z,11.03
2022-10-17T03:46:28.919Z,11.07
2022-10-17T03:47:29.152Z,11.10
2022-10-17T03:48:28.772Z,11.11
2022-10-17T03:49:28.776Z,11.14
2022-10-17T03:50:28.775Z,11.13
2022-10-17T03:51:28.724Z,11.11
2022-10-17T03:52:28.835Z,11.11
2022-10-17T03:53:28.718Z,11.09
2022-10-17T03:54:28.720Z,11.06
2022-10-17T03:55:28.683Z,11.06
2022-10-17T03:56:28.686Z,11.03
2022-10-17T03:57:28.906Z,11.06
2022-10-17T03:58:28.789Z,11.07
2022-10-17T03:59:28.639Z,11.10
2022-10-17T04:00:28.622Z,11.10
2022-10-17T04:01:28.663Z,11.10
2022-10-17T04:02:28.610Z,11.10
2022-10-17T04:03:28.574Z,11.11
2022-10-17T04:04:28.600Z,11.11
2022-10-17T04:05:28.539Z,11.10
2022-10-17T04:06:28.529Z,11.16
2022-10-17T04:07:28.535Z,11.16
2022-10-17T04:08:28.522Z,11.20
2022-10-17T04:09:28.487Z,11.21
2022-10-17T04:10:28.600Z,11.27
2022-10-17T04:11:28.472Z,11.32
2022-10-17T04:12:28.688Z,11.35
2022-10-17T04:13:28.444Z,11.35
2022-10-17T04:14:28.441Z,11.32
2022-10-17T04:15:28.401Z,11.35
2022-10-17T04:16:28.443Z,11.32
2022-10-17T04:17:28.381Z,11.32
2022-10-17T04:18:28.369Z,11.32
2022-10-17T04:19:28.365Z,11.29
2022-10-17T04:20:28.342Z,11.29
2022-10-17T04:21:28.337Z,11.29
2022-10-17T04:22:28.657Z,11.31
2022-10-17T04:23:28.301Z,11.32
2022-10-17T04:24:28.336Z,11.34
2022-10-17T04:25:29.651Z,11.36
2022-10-17T04:26:28.273Z,11.39
2022-10-17T04:27:28.255Z,11.39
2022-10-17T04:28:28.511Z,11.36
2022-10-17T04:29:28.227Z,11.36
2022-10-17T04:30:28.218Z,11.36
2022-10-17T04:31:28.212Z,11.35
2022-10-17T04:32:28.531Z,11.34
2022-10-17T04:33:28.156Z,11.35
2022-10-17T04:34:28.187Z,11.34
2022-10-17T04:35:28.150Z,11.32
2022-10-17T04:36:28.126Z,11.32
2022-10-17T04:37:28.119Z,11.32
2022-10-17T04:38:28.718Z,11.31
2022-10-17T04:39:28.075Z,11.29
2022-10-17T04:40:28.098Z,11.34
2022-10-17T04:41:28.062Z,11.29
2022-10-17T04:42:28.536Z,11.28
2022-10-17T04:43:28.028Z,11.29
2022-10-17T04:44:28.033Z,11.29
2022-10-17T04:45:28.000Z,11.32
2022-10-17T04:46:28.097Z,11.31
2022-10-17T04:47:27.984Z,11.27
2022-10-17T04:48:27.959Z,11.25
2022-10-17T04:49:27.992Z,11.20
2022-10-17T04:50:27.953Z,11.17
2022-10-17T04:51:27.912Z,11.19
2022-10-17T04:52:28.331Z,11.20
2022-10-17T04:53:27.891Z,11.24
2022-10-17T04:54:27.882Z,11.27
2022-10-17T04:55:27.885Z,11.25
2022-10-17T04:56:27.869Z,11.25
2022-10-17T04:57:27.832Z,11.25
2022-10-17T04:58:27.852Z,11.24
2022-10-17T04:59:27.817Z,11.25
2022-10-17T05:00:27.801Z,11.24
2022-10-17T05:01:27.826Z,11.20
2022-10-17T05:02:28.243Z,11.19
2022-10-17T05:03:27.768Z,11.19
2022-10-17T05:04:27.889Z,11.19
2022-10-17T05:05:27.725Z,11.19
2022-10-17T05:06:27.724Z,11.19
2022-10-17T05:07:27.709Z,11.20
2022-10-17T05:08:27.695Z,11.20
2022-10-17T05:09:27.691Z,11.19
2022-10-17T05:10:27.811Z,11.16
2022-10-17T05:11:27.670Z,11.14
2022-10-17T05:12:27.957Z,11.11
2022-10-17T05:13:27.634Z,11.11
2022-10-17T05:14:27.650Z,11.11
2022-10-17T05:15:27.599Z,11.10
2022-10-17T05:16:27.711Z,11.09
2022-10-17T05:17:27.560Z,11.09
2022-10-17T05:18:27.559Z,11.03
2022-10-17T05:19:27.554Z,11.03
2022-10-17T05:20:27.532Z,11.03
2022-10-17T05:21:27.578Z,11.01
2022-10-17T05:22:27.880Z,11.01
2022-10-17T05:23:27.480Z,11.03
2022-10-17T05:24:27.494Z,11.06
2022-10-17T05:25:27.460Z,11.06
2022-10-17T05:26:27.451Z,11.10
2022-10-17T05:27:27.445Z,11.11
2022-10-17T05:28:27.516Z,11.17
2022-10-17T05:29:27.414Z,11.21
2022-10-17T05:30:27.392Z,11.27
2022-10-17T05:31:27.396Z,11.29
2022-10-17T05:32:27.577Z,11.31
2022-10-17T05:33:27.366Z,11.29
2022-10-17T05:34:27.477Z,11.27
2022-10-17T05:35:27.342Z,11.24
2022-10-17T05:36:27.328Z,11.25
2022-10-17T05:37:27.312Z,11.32
2022-10-17T05:38:27.275Z,11.53
2022-10-17T05:39:27.294Z,11.70
2022-10-17T05:40:27.395Z,11.75
2022-10-17T05:41:27.260Z,11.75
2022-10-17T05:42:27.555Z,11.74
2022-10-17T05:43:27.215Z,11.77
2022-10-17T05:44:27.214Z,11.80
2022-10-17T05:45:27.210Z,11.85
2022-10-17T05:46:27.225Z,11.96
2022-10-17T05:47:27.514Z,11.99
2022-10-17T05:48:27.161Z,12.02
2022-10-17T05:49:33.259Z,12.05
2022-10-17T05:50:28.145Z,12.11
2022-10-17T05:51:27.142Z,12.16
2022-10-17T05:52:27.324Z,12.24
2022-10-17T05:53:27.127Z,12.27
2022-10-17T05:54:27.085Z,12.34
2022-10-17T05:55:27.050Z,12.34
2022-10-17T05:56:27.055Z,12.42
2022-10-17T05:57:27.020Z,12.42
2022-10-17T05:59:28.012Z,12.39
2022-10-17T06:00:26.993Z,12.41
2022-10-17T06:01:26.970Z,12.38
2022-10-17T06:02:27.358Z,12.37
2022-10-17T06:03:26.965Z,12.39
2022-10-17T06:04:26.972Z,12.34
2022-10-17T06:05:26.934Z,12.37
2022-10-17T06:06:26.908Z,12.37
2022-10-17T06:07:26.891Z,12.33
2022-10-17T06:08:26.886Z,12.33
2022-10-17T06:09:26.870Z,12.37
2022-10-17T06:10:26.883Z,12.33
2022-10-17T06:11:26.849Z,12.31
2022-10-17T06:12:27.194Z,12.37
2022-10-17T06:13:26.829Z,12.44
2022-10-17T06:14:26.826Z,12.49
2022-10-17T06:15:26.776Z,12.49
2022-10-17T06:16:26.886Z,12.46
2022-10-17T06:17:26.769Z,12.46
2022-10-17T06:18:26.748Z,12.46
2022-10-17T06:19:26.725Z,12.45
2022-10-17T06:20:26.722Z,12.46
2022-10-17T06:21:26.697Z,12.45
2022-10-17T06:22:27.130Z,12.46
2022-10-17T06:23:26.691Z,12.45
2022-10-17T06:24:26.649Z,12.46
2022-10-17T06:25:26.662Z,12.52
2022-10-17T06:26:26.641Z,12.63
2022-10-17T06:27:26.616Z,12.70
2022-10-17T06:28:26.835Z,12.77
2022-10-17T06:29:26.589Z,12.79
2022-10-17T06:30:26.570Z,12.82
2022-10-17T06:31:26.573Z,12.85
2022-10-17T06:32:26.697Z,12.89
2022-10-17T06:33:26.581Z,12.95
2022-10-17T06:34:26.643Z,12.97
2022-10-17T06:35:26.512Z,12.99
2022-10-17T06:36:26.506Z,13.03
2022-10-17T06:37:27.217Z,13.03
2022-10-17T06:38:26.464Z,13.06
2022-10-17T06:39:26.467Z,13.07
2022-10-17T06:40:26.582Z,13.07
2022-10-17T06:41:26.447Z,13.06
2022-10-17T06:42:26.435Z,13.06
2022-10-17T06:43:27.951Z,13.07
2022-10-17T06:44:26.399Z,13.12
2022-10-17T06:45:26.374Z,13.18
2022-10-17T06:46:26.384Z,13.25
2022-10-17T06:47:26.369Z,13.27
2022-10-17T06:48:26.350Z,13.30
2022-10-17T06:49:26.317Z,13.32
2022-10-17T06:50:26.326Z,13.29
2022-10-17T06:51:26.311Z,13.29
2022-10-17T06:52:26.397Z,13.32
2022-10-17T06:53:26.283Z,13.37
2022-10-17T06:54:26.288Z,13.38
2022-10-17T06:55:26.244Z,13.41
2022-10-17T06:56:26.254Z,13.46
2022-10-17T06:57:26.500Z,13.51
2022-10-17T06:58:26.219Z,13.52
2022-10-17T06:59:26.204Z,13.55
2022-10-17T07:00:26.169Z,13.58
2022-10-17T07:01:26.173Z,13.59
2022-10-17T07:02:26.273Z,13.59
2022-10-17T07:03:26.131Z,13.62
2022-10-17T07:04:26.232Z,13.65
2022-10-17T07:05:26.124Z,13.70
2022-10-17T07:06:26.108Z,13.70
2022-10-17T07:07:26.175Z,13.70
2022-10-17T07:08:26.098Z,13.74
2022-10-17T07:09:26.052Z,13.77
2022-10-17T07:10:26.174Z,13.81
2022-10-17T07:11:26.045Z,13.84
2022-10-17T07:12:26.023Z,13.89
2022-10-17T07:13:26.024Z,13.95
2022-10-17T07:14:25.998Z,13.98
2022-10-17T07:15:25.974Z,14.02
2022-10-17T07:16:26.087Z,14.06
2022-10-17T07:17:26.055Z,14.06
2022-10-17T07:18:25.930Z,14.10
2022-10-17T07:19:25.943Z,14.14
2022-10-17T07:20:25.921Z,14.14
2022-10-17T07:21:25.904Z,14.17
2022-10-17T07:22:25.916Z,14.21
2022-10-17T07:23:25.891Z,14.24
2022-10-17T07:24:25.858Z,14.27
2022-10-17T07:25:25.861Z,14.29
2022-10-17T07:26:25.841Z,14.32
2022-10-17T07:27:25.836Z,14.34
2022-10-17T07:28:25.853Z,14.35
2022-10-17T07:29:25.788Z,14.38
2022-10-17T07:30:25.769Z,14.39
2022-10-17T07:31:25.781Z,14.43
2022-10-17T07:32:25.767Z,14.44
2022-10-17T07:33:25.754Z,14.46
2022-10-17T07:34:25.862Z,14.50
2022-10-17T07:35:25.712Z,14.53
2022-10-17T07:36:25.713Z,14.54
2022-10-17T07:37:25.690Z,14.61
2022-10-17T07:38:25.672Z,14.64
2022-10-17T07:39:25.666Z,14.68
2022-10-17T07:40:25.754Z,14.72
2022-10-17T07:41:25.645Z,14.80
2022-10-17T07:42:25.687Z,14.83
2022-10-17T07:43:25.603Z,14.88
2022-10-17T07:44:25.606Z,14.91
2022-10-17T07:45:25.582Z,14.95
2022-10-17T07:46:25.674Z,14.99
2022-10-17T07:47:25.569Z,15.02
2022-10-17T07:48:25.538Z,15.09
2022-10-17T07:49:25.540Z,15.15
2022-10-17T07:50:25.553Z,15.23
2022-10-17T07:51:25.535Z,15.28
2022-10-17T07:52:25.606Z,15.30
2022-10-17T07:53:25.487Z,15.31
2022-10-17T07:54:25.471Z,15.31
2022-10-17T07:55:25.466Z,15.36
2022-10-17T07:56:25.448Z,15.39
2022-10-17T07:57:25.426Z,15.42
2022-10-17T07:58:25.528Z,15.45
2022-10-17T07:59:25.402Z,15.48
2022-10-17T08:00:25.378Z,15.51
2022-10-17T08:01:25.549Z,15.54
2022-10-17T08:02:25.366Z,15.59
2022-10-17T08:03:25.361Z,15.63
2022-10-17T08:04:25.441Z,15.61
2022-10-17T08:05:25.311Z,15.66
2022-10-17T08:06:25.437Z,15.70
2022-10-17T08:07:29.158Z,15.76
2022-10-17T08:08:25.274Z,15.79
2022-10-17T08:09:25.268Z,15.85
2022-10-17T08:10:25.354Z,15.88
2022-10-17T08:11:25.246Z,15.93
2022-10-17T08:12:25.218Z,15.97
2022-10-17T08:13:25.221Z,16.03
2022-10-17T08:14:25.216Z,16.09
2022-10-17T08:15:28.015Z,16.18
2022-10-17T08:16:26.198Z,16.26
2022-10-17T08:17:25.144Z,16.30
2022-10-17T08:18:25.125Z,16.38
2022-10-17T08:19:25.139Z,16.44
2022-10-17T08:20:25.097Z,16.52
2022-10-17T08:21:25.109Z,16.58
2022-10-17T08:22:25.109Z,16.62
2022-10-17T08:23:25.067Z,16.63
2022-10-17T08:24:25.067Z,16.65
2022-10-17T08:25:25.091Z,16.67
2022-10-17T08:26:25.051Z,16.68
2022-10-17T08:27:25.009Z,16.71
2022-10-17T08:28:25.065Z,16.74
2022-10-17T08:29:25.013Z,16.78
2022-10-17T08:30:24.969Z,16.83
2022-10-17T08:31:24.981Z,16.89
2022-10-17T08:32:24.983Z,16.93
2022-10-17T08:33:24.962Z,16.99
2022-10-17T08:34:25.044Z,17.07
2022-10-17T08:35:24.913Z,17.14
2022-10-17T08:36:24.909Z,17.20
2022-10-17T08:37:24.881Z,17.20
2022-10-17T08:38:27.551Z,17.26
2022-10-17T08:39:24.874Z,17.32
2022-10-17T08:40:24.953Z,17.35
2022-10-17T08:41:24.845Z,17.43
2022-10-17T08:42:24.828Z,17.48
2022-10-17T08:43:24.803Z,17.57
2022-10-17T08:44:24.798Z,17.70
2022-10-17T08:45:24.773Z,17.87
2022-10-17T08:46:24.876Z,18.13
2022-10-17T08:47:24.769Z,18.42
2022-10-17T08:48:24.739Z,18.72
2022-10-17T08:49:24.739Z,18.91
2022-10-17T08:50:24.742Z,19.13
2022-10-17T08:51:24.697Z,19.15
2022-10-17T08:52:24.818Z,19.15
2022-10-17T08:53:24.668Z,19.11
2022-10-17T08:54:24.652Z,19.11
2022-10-17T08:55:24.680Z,19.06
2022-10-17T08:56:36.526Z,19.06
2022-10-17T08:57:25.791Z,19.05
2022-10-17T08:58:24.596Z,19.06
2022-10-17T08:59:24.602Z,19.20
2022-10-17T09:00:24.570Z,19.40
2022-10-17T09:01:24.573Z,19.76
2022-10-17T09:02:24.561Z,20.27
2022-10-17T09:03:24.702Z,20.72
2022-10-17T09:04:24.531Z,21.20
2022-10-17T09:05:26.539Z,21.50
2022-10-17T09:06:24.492Z,21.51
2022-10-17T09:07:24.556Z,21.72
2022-10-17T09:08:24.452Z,22.13
2022-10-17T09:09:24.576Z,22.34
2022-10-17T09:10:24.446Z,22.39
2022-10-17T09:11:24.425Z,22.35
2022-10-17T09:12:24.404Z,22.16
2022-10-17T09:13:24.499Z,21.82
2022-10-17T09:14:24.395Z,21.57
2022-10-17T09:15:24.485Z,21.57
2022-10-17T09:16:24.368Z,21.45
2022-10-17T09:17:24.373Z,21.46
2022-10-17T09:18:24.326Z,21.48
2022-10-17T09:19:24.331Z,21.45
2022-10-17T09:20:24.297Z,21.34
2022-10-17T09:21:24.419Z,21.24
2022-10-17T09:22:24.282Z,21.09
2022-10-17T09:23:24.265Z,20.91
2022-10-17T09:24:24.261Z,20.71
2022-10-17T09:25:24.238Z,20.69
2022-10-17T09:26:24.219Z,20.66
2022-10-17T09:27:24.406Z,20.54
2022-10-17T09:28:24.298Z,20.42
2022-10-17T09:29:24.192Z,20.38
2022-10-17T09:30:43.681Z,20.28
2022-10-17T09:31:25.175Z,20.24
2022-10-17T09:32:24.143Z,20.23
2022-10-17T09:33:34.801Z,20.16
2022-10-17T09:34:26.671Z,20.18
2022-10-17T09:35:24.104Z,20.20
2022-10-17T09:36:24.118Z,20.27
2022-10-17T09:37:24.193Z,20.38
2022-10-17T09:38:24.064Z,20.49
2022-10-17T09:39:24.178Z,20.69
2022-10-17T09:40:24.036Z,20.89
2022-10-17T09:42:25.021Z,21.02
2022-10-17T09:43:23.996Z,21.06
2022-10-17T09:44:23.988Z,21.04
2022-10-17T09:45:24.019Z,20.98
2022-10-17T09:46:23.970Z,20.84
2022-10-17T09:47:24.076Z,20.81
2022-10-17T09:48:23.949Z,20.79
2022-10-17T09:49:23.908Z,20.74
2022-10-17T09:50:24.045Z,20.71
2022-10-17T09:51:26.192Z,20.71
2022-10-17T09:52:23.885Z,20.68
2022-10-17T09:53:23.876Z,20.64
2022-10-17T09:54:23.873Z,20.66
2022-10-17T09:55:23.840Z,20.72
2022-10-17T09:56:23.847Z,20.77
2022-10-17T09:57:23.889Z,20.87
2022-10-17T09:58:23.796Z,21.01
2022-10-17T09:59:23.796Z,21.14
2022-10-17T10:00:23.844Z,21.38
2022-10-17T10:01:24.440Z,21.72
2022-10-17T10:02:23.746Z,22.20
2022-10-17T10:03:23.887Z,22.75
2022-10-17T10:04:23.725Z,23.08
2022-10-17T10:05:23.718Z,23.31
2022-10-17T10:06:23.699Z,23.39
2022-10-17T10:07:29.022Z,23.52
2022-10-17T10:08:24.800Z,23.49
2022-10-17T10:09:23.649Z,23.61
2022-10-17T10:10:23.638Z,23.57
2022-10-17T10:11:23.638Z,23.49
2022-10-17T10:12:23.617Z,23.19
2022-10-17T10:13:23.611Z,22.69
2022-10-17T10:14:23.712Z,22.47
2022-10-17T10:15:23.591Z,22.37
2022-10-17T10:16:23.564Z,22.60
2022-10-17T10:17:23.567Z,22.90
2022-10-17T10:18:23.594Z,23.09
2022-10-17T10:19:23.526Z,23.50
2022-10-17T10:20:23.544Z,23.97
2022-10-17T10:21:23.483Z,24.02
2022-10-17T10:22:23.498Z,24.07
2022-10-17T10:23:23.486Z,24.05
2022-10-17T10:24:28.146Z,24.60
2022-10-17T10:25:24.478Z,24.85
2022-10-17T10:26:23.440Z,24.56
2022-10-17T10:27:23.433Z,24.23
2022-10-17T10:28:23.450Z,24.08
2022-10-17T10:29:23.386Z,24.22
2022-10-17T10:30:23.374Z,24.10
2022-10-17T10:31:38.081Z,23.94
2022-10-17T10:32:23.340Z,23.70
2022-10-17T10:33:23.340Z,23.47
2022-10-17T10:34:23.317Z,23.14
2022-10-17T10:35:23.298Z,22.72
2022-10-17T10:36:23.376Z,22.52
2022-10-17T10:37:23.298Z,22.49
2022-10-17T10:38:23.277Z,22.39
2022-10-17T10:39:23.256Z,22.31
2022-10-17T10:40:23.238Z,22.22
2022-10-17T10:41:23.219Z,22.13
2022-10-17T10:42:23.214Z,22.02
2022-10-17T10:43:23.219Z,21.88
2022-10-17T10:44:23.190Z,21.75
2022-10-17T10:45:43.194Z,21.72
2022-10-17T10:46:24.162Z,21.63
2022-10-17T10:47:23.150Z,21.57
2022-10-17T10:48:23.133Z,21.54
2022-10-17T10:49:23.142Z,21.54
2022-10-17T10:50:23.113Z,21.59
2022-10-17T10:51:23.094Z,21.66
2022-10-17T10:52:23.084Z,21.76
2022-10-17T10:53:23.064Z,21.88
2022-10-17T10:54:23.063Z,22.01
2022-10-17T10:55:23.154Z,22.13
2022-10-17T10:56:23.025Z,22.32
2022-10-17T10:57:23.015Z,22.46
2022-10-17T10:58:23.008Z,22.54
2022-10-17T10:59:22.987Z,22.68
2022-10-17T11:00:23.059Z,22.80
2022-10-17T11:01:22.988Z,22.82
2022-10-17T11:02:22.955Z,22.83
2022-10-17T11:03:22.938Z,22.78
2022-10-17T11:04:22.929Z,22.60
2022-10-17T11:05:22.908Z,22.27
2022-10-17T11:06:22.899Z,22.12
2022-10-17T11:07:22.931Z,22.01
2022-10-17T11:08:22.881Z,21.92
2022-10-17T11:09:22.867Z,21.71
2022-10-17T11:10:22.851Z,21.67
2022-10-17T11:11:22.831Z,21.67
2022-10-17T11:12:22.823Z,21.66
2022-10-17T11:13:22.823Z,21.72
2022-10-17T11:14:22.793Z,21.75
2022-10-17T11:15:22.782Z,21.63
2022-10-17T11:16:22.775Z,21.56
2022-10-17T11:17:22.754Z,21.54
2022-10-17T11:18:22.744Z,21.53
2022-10-17T11:19:22.847Z,21.61
2022-10-17T11:20:22.715Z,21.60
2022-10-17T11:21:22.706Z,21.56
2022-10-17T11:22:25.256Z,21.53
2022-10-17T11:23:23.676Z,21.48
2022-10-17T11:24:22.667Z,21.42
2022-10-17T11:25:22.777Z,21.27
2022-10-17T11:26:22.638Z,21.23
2022-10-17T11:27:22.619Z,21.13
2022-10-17T11:28:22.676Z,21.04
2022-10-17T11:29:22.600Z,20.96
2022-10-17T11:30:22.590Z,20.93
2022-10-17T11:31:22.695Z,20.89
2022-10-17T11:32:22.562Z,20.83
2022-10-17T11:33:22.549Z,20.74
2022-10-17T11:34:22.531Z,20.71
2022-10-17T11:35:22.519Z,20.69
2022-10-17T11:36:22.502Z,20.71
2022-10-17T11:37:22.603Z,20.69
2022-10-17T11:38:22.486Z,20.65
2022-10-17T11:39:22.463Z,20.59
2022-10-17T11:40:24.423Z,20.54
2022-10-17T11:41:22.436Z,20.56
2022-10-17T11:42:22.424Z,20.59
2022-10-17T11:43:22.614Z,20.66
2022-10-17T11:44:22.395Z,20.66
2022-10-17T11:45:22.386Z,20.68
2022-10-17T11:46:22.377Z,20.66
2022-10-17T11:47:22.357Z,20.64
2022-10-17T11:48:22.349Z,20.62
2022-10-17T11:49:22.487Z,20.68
2022-10-17T11:52:37.826Z,20.66
2022-10-17T11:53:23.288Z,20.68
2022-10-17T11:54:22.271Z,20.58
2022-10-17T11:55:22.360Z,20.53
2022-10-17T11:56:22.902Z,20.53
2022-10-17T11:57:22.222Z,20.50
2022-10-17T11:58:22.261Z,20.51
2022-10-17T11:59:22.200Z,20.53
2022-10-17T12:00:22.182Z,20.53
2022-10-17T12:01:22.192Z,20.53
2022-10-17T12:02:22.164Z,20.51
2022-10-17T12:03:22.144Z,20.58
2022-10-17T12:04:22.227Z,20.62
2022-10-17T12:05:22.113Z,20.61
2022-10-17T12:06:25.854Z,20.58
2022-10-17T12:07:23.279Z,20.51
2022-10-17T12:08:22.082Z,20.49
2022-10-17T12:09:22.095Z,20.43
2022-10-17T12:10:22.054Z,20.42
2022-10-17T12:11:22.035Z,20.41
2022-10-17T12:12:22.026Z,20.43
2022-10-17T12:13:22.127Z,20.47
2022-10-17T12:14:21.998Z,20.47
2022-10-17T12:15:21.978Z,20.46
2022-10-17T12:16:21.971Z,20.46
2022-10-17T12:17:21.959Z,20.46
2022-10-17T12:18:21.950Z,20.46
2022-10-17T12:19:22.039Z,20.46
2022-10-17T12:20:21.923Z,20.43
2022-10-17T12:21:22.487Z,20.43
2022-10-17T12:22:21.891Z,20.47
2022-10-17T12:23:21.871Z,20.50
2022-10-17T12:24:21.870Z,20.50
2022-10-17T12:25:22.051Z,20.49
2022-10-17T12:26:21.839Z,20.49
2022-10-17T12:27:21.822Z,20.46
2022-10-17T12:28:21.839Z,20.41
2022-10-17T12:29:21.803Z,20.35
2022-10-17T12:30:21.783Z,20.27
2022-10-17T12:31:21.794Z,20.23
2022-10-17T12:32:21.754Z,20.16
2022-10-17T12:33:21.737Z,20.18
2022-10-17T12:34:21.735Z,20.21
2022-10-17T12:35:21.725Z,20.27
2022-10-17T12:36:21.708Z,20.31
2022-10-17T12:37:21.796Z,20.30
2022-10-17T12:38:21.684Z,20.31
2022-10-17T12:39:21.671Z,20.31
2022-10-17T12:40:21.648Z,20.33
2022-10-17T12:41:21.629Z,20.31
2022-10-17T12:42:21.627Z,20.33
2022-10-17T12:43:21.720Z,20.28
2022-10-17T12:44:21.606Z,20.28
2022-10-17T12:45:21.580Z,20.27
2022-10-17T12:46:21.570Z,20.24
2022-10-17T12:47:21.551Z,20.25
2022-10-17T12:48:22.122Z,20.25
2022-10-17T12:49:21.632Z,20.27
2022-10-17T12:50:21.523Z,20.27
2022-10-17T12:51:35.326Z,20.24
2022-10-17T12:52:22.492Z,20.25
2022-10-17T12:53:21.473Z,20.27
2022-10-17T12:54:21.464Z,20.28
2022-10-17T12:55:21.563Z,20.25
2022-10-17T12:56:21.434Z,20.23
2022-10-17T12:57:21.417Z,20.16
2022-10-17T12:58:21.413Z,20.20
2022-10-17T12:59:21.386Z,20.21